createdAt,value
2022-09-15T00:02:22.867Z,100.0
2022-09-15T00:07:22.727Z,100.0
2022-09-15T00:12:22.728Z,100.0
2022-09-15T00:17:23.433Z,100.0
2022-09-15T00:22:24.037Z,100.0
2022-09-15T00:27:22.733Z,100.0
2022-09-15T00:37:22.724Z,100.0
2022-09-15T00:47:22.739Z,100.0
2022-09-15T00:52:22.740Z,100.0
2022-09-15T01:02:22.872Z,100.0
2022-09-15T01:07:22.956Z,100.0
2022-09-15T01:22:22.749Z,100.0
2022-09-15T01:27:41.012Z,100.0
2022-09-15T01:52:22.751Z,100.0
2022-09-15T02:22:22.759Z,100.0
2022-09-15T02:32:22.777Z,100.0
2022-09-15T02:42:22.789Z,100.0
2022-09-15T02:47:22.773Z,100.0
2022-09-15T02:52:22.789Z,100.0
2022-09-15T03:02:22.843Z,100.0
2022-09-15T03:07:25.291Z,100.0
2022-09-15T03:17:22.781Z,100.0
2022-09-15T03:27:22.786Z,97.8
2022-09-15T03:32:22.792Z,97.5
2022-09-15T03:37:22.791Z,96.5
2022-09-15T03:42:22.786Z,97.7
2022-09-15T03:57:22.810Z,98.0
2022-09-15T04:02:22.850Z,98.5
2022-09-15T04:17:22.808Z,99.0
2022-09-15T04:22:22.812Z,99.2
2022-09-15T04:27:22.820Z,98.7
2022-09-15T04:57:22.831Z,98.0
2022-09-15T05:02:22.891Z,96.5
2022-09-15T05:07:22.840Z,95.3
2022-09-15T05:17:26.593Z,96.9
2022-09-15T05:22:22.839Z,95.6
2022-09-15T05:27:22.847Z,93.6
2022-09-15T05:37:22.853Z,92.6
2022-09-15T05:47:22.841Z,96.9
2022-09-15T06:07:22.842Z,95.3
2022-09-15T06:12:22.850Z,93.3
2022-09-15T06:27:22.857Z,92.3
2022-09-15T06:32:22.856Z,91.8
2022-09-15T06:37:22.861Z,90.7
2022-09-15T06:42:22.861Z,88.2
2022-09-15T06:52:22.878Z,86.4
2022-09-15T06:57:22.895Z,83.9
2022-09-15T07:07:22.881Z,86.4
2022-09-15T07:12:22.874Z,85.7
2022-09-15T07:17:22.883Z,83.5
2022-09-15T07:32:22.876Z,82.5
2022-09-15T07:42:22.883Z,77.8
2022-09-15T07:47:22.882Z,78.5
2022-09-15T07:52:22.889Z,77.2
2022-09-15T08:02:22.970Z,74.9
2022-09-15T08:07:22.913Z,72.2
2022-09-15T08:12:22.882Z,72.2
2022-09-15T08:17:22.893Z,71.9
2022-09-15T08:27:22.924Z,72.2
2022-09-15T08:32:22.924Z,72.1
2022-09-15T08:37:22.914Z,71.6
2022-09-15T08:42:22.906Z,72.2
2022-09-15T08:47:22.919Z,71.2
2022-09-15T08:52:22.912Z,70.6
2022-09-15T08:57:22.903Z,69.5
2022-09-15T09:02:23.006Z,69.1
2022-09-15T09:07:22.914Z,68.9
2022-09-15T09:12:22.917Z,68.5
2022-09-15T09:17:22.912Z,68.0
2022-09-15T09:22:22.921Z,65.4
2022-09-15T09:27:22.944Z,66.2
2022-09-15T09:32:22.926Z,64.0
2022-09-15T09:37:22.929Z,63.3
2022-09-15T09:42:22.944Z,60.1
2022-09-15T09:47:22.932Z,60.8
2022-09-15T09:52:22.944Z,61.7
2022-09-15T09:57:22.946Z,62.2
2022-09-15T10:02:22.939Z,61.9
2022-09-15T10:07:22.948Z,63.8
2022-09-15T10:12:22.949Z,62.6
2022-09-15T10:17:22.942Z,62.3
2022-09-15T10:22:22.943Z,61.1
2022-09-15T10:27:22.945Z,61.7
2022-09-15T10:32:25.282Z,60.3
2022-09-15T10:37:22.945Z,62.2
2022-09-15T10:42:22.958Z,60.5
2022-09-15T10:47:22.970Z,62.7
2022-09-15T10:52:22.957Z,66.3
2022-09-15T10:57:22.972Z,65.5
2022-09-15T11:02:23.055Z,79.9
2022-09-15T11:07:22.954Z,81.5
2022-09-15T11:12:25.941Z,84.0
2022-09-15T11:17:22.972Z,83.4
2022-09-15T11:22:22.985Z,79.3
2022-09-15T11:32:22.985Z,74.9
2022-09-15T11:37:22.972Z,74.2
2022-09-15T11:42:22.973Z,71.7
2022-09-15T11:47:22.981Z,70.8
2022-09-15T11:52:22.973Z,69.8
2022-09-15T11:57:22.982Z,67.0
2022-09-15T12:02:23.131Z,64.3
2022-09-15T12:07:22.975Z,58.8
2022-09-15T12:12:22.995Z,60.5
2022-09-15T12:17:22.990Z,62.8
2022-09-15T12:22:22.983Z,57.2
2022-09-15T12:27:22.997Z,56.5
2022-09-15T12:32:22.994Z,53.1
2022-09-15T12:37:23.000Z,51.5
2022-09-15T12:42:23.025Z,55.7
2022-09-15T12:47:23.004Z,54.2
2022-09-15T12:52:22.997Z,56.2
2022-09-15T12:57:23.004Z,59.2
2022-09-15T13:07:23.024Z,59.0
2022-09-15T13:12:23.015Z,57.0
2022-09-15T13:17:23.007Z,51.3
2022-09-15T13:22:23.012Z,48.9
2022-09-15T13:27:23.019Z,44.4
2022-09-15T13:32:23.029Z,44.5
2022-09-15T13:42:23.026Z,44.8
2022-09-15T13:47:23.016Z,50.5
2022-09-15T13:52:23.021Z,52.9
2022-09-15T13:58:54.756Z,53.8
2022-09-15T14:07:23.046Z,54.4
2022-09-15T14:12:23.038Z,55.1
2022-09-15T14:17:23.057Z,54.9
2022-09-15T14:22:23.238Z,55.6
2022-09-15T14:27:23.056Z,54.5
2022-09-15T14:32:23.039Z,56.3
2022-09-15T14:37:23.046Z,53.0
2022-09-15T14:42:23.090Z,54.2
2022-09-15T14:47:23.046Z,51.4
2022-09-15T14:52:23.058Z,50.3
2022-09-15T14:57:25.559Z,50.6
2022-09-15T15:02:23.135Z,51.6
2022-09-15T15:07:23.050Z,52.8
2022-09-15T15:12:23.055Z,55.0
2022-09-15T15:17:23.058Z,53.9
2022-09-15T15:22:23.059Z,54.8
2022-09-15T15:27:23.063Z,55.0
2022-09-15T15:32:23.058Z,54.3
2022-09-15T15:37:23.060Z,54.9
2022-09-15T15:42:23.085Z,44.8
2022-09-15T15:47:23.080Z,41.5
2022-09-15T15:52:23.062Z,43.8
2022-09-15T15:57:23.077Z,46.0
2022-09-15T16:02:23.127Z,45.9
2022-09-15T16:07:23.066Z,50.5
2022-09-15T16:12:23.104Z,53.7
2022-09-15T16:17:23.087Z,53.7
2022-09-15T16:22:23.082Z,54.8
2022-09-15T16:27:23.089Z,53.6
2022-09-15T16:32:23.090Z,53.5
2022-09-15T16:37:23.092Z,55.9
2022-09-15T16:47:23.080Z,57.3
2022-09-15T16:52:23.101Z,57.5
2022-09-15T16:57:23.095Z,55.8
2022-09-15T17:07:23.116Z,56.1
2022-09-15T17:12:23.099Z,55.6
2022-09-15T17:17:23.102Z,56.4
2022-09-15T17:22:23.110Z,58.2
2022-09-15T17:27:23.117Z,55.9
2022-09-15T17:32:23.099Z,58.2
2022-09-15T17:37:23.114Z,57.4
2022-09-15T17:42:23.122Z,58.2
2022-09-15T17:47:23.123Z,57.7
2022-09-15T17:52:23.122Z,59.4
2022-09-15T17:57:23.371Z,60.8
2022-09-15T18:02:23.140Z,62.6
2022-09-15T18:12:23.130Z,62.2
2022-09-15T18:27:23.123Z,63.4
2022-09-15T18:32:23.131Z,64.2
2022-09-15T18:37:23.126Z,64.5
2022-09-15T18:42:23.135Z,65.8
2022-09-15T18:57:23.137Z,66.0
2022-09-15T19:02:23.229Z,67.4
2022-09-15T19:07:27.667Z,67.1
2022-09-15T19:17:23.142Z,68.9
2022-09-15T19:22:23.157Z,69.3
2022-09-15T19:27:23.153Z,69.0
2022-09-15T19:32:24.440Z,70.4
2022-09-15T19:37:23.171Z,70.4
2022-09-15T19:42:23.160Z,72.6
2022-09-15T19:47:23.167Z,73.5
2022-09-15T19:57:23.169Z,74.8
2022-09-15T20:02:23.234Z,74.3
2022-09-15T20:07:23.198Z,74.8
2022-09-15T20:12:23.184Z,74.0
2022-09-15T20:17:23.249Z,73.4
2022-09-15T20:22:23.174Z,72.5
2022-09-15T20:27:23.181Z,71.7
2022-09-15T20:37:23.183Z,70.9
2022-09-15T20:42:23.191Z,71.6
2022-09-15T20:47:23.187Z,71.4
2022-09-15T20:52:25.850Z,73.6
2022-09-15T20:57:23.193Z,76.9
2022-09-15T21:02:23.278Z,79.2
2022-09-15T21:07:23.193Z,79.4
2022-09-15T21:12:23.189Z,79.5
2022-09-15T21:17:23.220Z,80.6
2022-09-15T21:22:23.191Z,81.5
2022-09-15T21:27:23.212Z,82.0
2022-09-15T21:32:23.201Z,82.8
2022-09-15T21:37:23.223Z,82.9
2022-09-15T21:47:23.209Z,84.5
2022-09-15T21:57:23.216Z,84.0
2022-09-15T22:12:23.226Z,84.5
2022-09-15T22:17:23.215Z,85.8
2022-09-15T22:22:23.226Z,86.6
2022-09-15T22:27:23.223Z,85.9
2022-09-15T22:37:23.231Z,86.5
2022-09-15T22:42:23.259Z,87.5
2022-09-15T22:57:23.235Z,88.3
2022-09-15T23:12:23.235Z,87.9
2022-09-15T23:17:23.237Z,89.2
2022-09-15T23:27:23.252Z,89.3
2022-09-15T23:42:23.243Z,87.7
